sensor_id;sensor_type;location;lat;lon;timestamp;temperature;humidity
50606;DHT22;36557;53.572;10.170;2023-05-07T10:51:34;13.30;99.90
50606;DHT22;36557;53.572;10.170;2023-05-07T10:56:39;13.10;99.90
50606;DHT22;36557;53.572;10.170;2023-05-07T11:02:18;13.40;99.90
50606;DHT22;36557;53.572;10.170;2023-05-07T11:04:44;13.30;99.90
50606;DHT22;36557;53.572;10.170;2023-05-07T11:07:23;13.50;99.90
50606;DHT22;36557;53.572;10.170;2023-05-07T11:15:06;13.30;99.90
50606;DHT22;36557;53.572;10.170;2023-05-07T11:17:33;13.60;99.90
50606;DHT22;36557;53.572;10.170;2023-05-07T11:20:03;13.70;99.90
50606;DHT22;36557;53.572;10.170;2023-05-07T11:25:05;13.90;99.90
50606;DHT22;36557;53.572;10.170;2023-05-07T11:27:32;13.90;99.90
50606;DHT22;36557;53.572;10.170;2023-05-07T11:29:58;14.00;99.90
50606;DHT22;36557;53.572;10.170;2023-05-07T11:32:26;14.10;99.90
50606;DHT22;36557;53.572;10.170;2023-05-07T11:34:55;14.20;99.90
50606;DHT22;36557;53.572;10.170;2023-05-07T11:37:22;14.20;99.90
50606;DHT22;36557;53.572;10.170;2023-05-07T11:39:49;14.50;99.90
50606;DHT22;36557;53.572;10.170;2023-05-07T11:42:30;14.80;99.90
50606;DHT22;36557;53.572;10.170;2023-05-07T11:44:57;14.90;99.90
50606;DHT22;36557;53.572;10.170;2023-05-07T11:47:24;14.80;99.90
50606;DHT22;36557;53.572;10.170;2023-05-07T11:49:54;15.00;99.90
50606;DHT22;36557;53.572;10.170;2023-05-07T11:52:21;15.30;99.90
50606;DHT22;36557;53.572;10.170;2023-05-07T11:54:55;15.00;99.90
50606;DHT22;36557;53.572;10.170;2023-05-07T11:57:24;15.30;99.90
50606;DHT22;36557;53.572;10.170;2023-05-07T11:59:56;15.50;99.90
50606;DHT22;36557;53.572;10.170;2023-05-07T12:02:23;15.40;99.90
50606;DHT22;36557;53.572;10.170;2023-05-07T12:04:50;15.60;99.90
50606;DHT22;36557;53.572;10.170;2023-05-07T12:07:16;15.80;99.90
50606;DHT22;36557;53.572;10.170;2023-05-07T12:09:44;15.80;99.90
50606;DHT22;36557;53.572;10.170;2023-05-07T12:12:10;15.60;99.90
50606;DHT22;36557;53.572;10.170;2023-05-07T12:14:43;15.50;99.90
50606;DHT22;36557;53.572;10.170;2023-05-07T12:17:11;15.50;99.90
50606;DHT22;36557;53.572;10.170;2023-05-07T12:19:38;15.80;99.90
50606;DHT22;36557;53.572;10.170;2023-05-07T12:22:05;15.70;99.90
50606;DHT22;36557;53.572;10.170;2023-05-07T12:24:56;15.80;99.90
50606;DHT22;36557;53.572;10.170;2023-05-07T12:27:22;15.40;99.90
50606;DHT22;36557;53.572;10.170;2023-05-07T12:29:49;15.50;99.80
50606;DHT22;36557;53.572;10.170;2023-05-07T12:32:16;15.80;99.90
50606;DHT22;36557;53.572;10.170;2023-05-07T12:34:43;15.70;99.90
50606;DHT22;36557;53.572;10.170;2023-05-07T12:37:09;15.90;99.70
50606;DHT22;36557;53.572;10.170;2023-05-07T12:39:35;15.80;99.90
50606;DHT22;36557;53.572;10.170;2023-05-07T12:42:01;15.90;99.90
50606;DHT22;36557;53.572;10.170;2023-05-07T12:44:32;16.00;99.80
50606;DHT22;36557;53.572;10.170;2023-05-07T12:47:01;15.70;99.80
50606;DHT22;36557;53.572;10.170;2023-05-07T12:49:26;15.70;99.80
50606;DHT22;36557;53.572;10.170;2023-05-07T12:51:53;15.70;99.90
50606;DHT22;36557;53.572;10.170;2023-05-07T12:54:37;15.40;99.70
50606;DHT22;36557;53.572;10.170;2023-05-07T12:57:06;15.10;99.90
50606;DHT22;36557;53.572;10.170;2023-05-07T12:59:37;15.30;99.90
50606;DHT22;36557;53.572;10.170;2023-05-07T13:02:03;15.30;99.90
50606;DHT22;36557;53.572;10.170;2023-05-07T13:04:29;15.60;99.90
50606;DHT22;36557;53.572;10.170;2023-05-07T13:06:54;16.10;99.30
50606;DHT22;36557;53.572;10.170;2023-05-07T13:09:20;16.30;98.80
50606;DHT22;36557;53.572;10.170;2023-05-07T13:11:46;16.50;99.10
50606;DHT22;36557;53.572;10.170;2023-05-07T13:14:12;16.50;98.70
50606;DHT22;36557;53.572;10.170;2023-05-07T13:16:37;16.50;99.20
50606;DHT22;36557;53.572;10.170;2023-05-07T13:19:03;16.60;99.00
50606;DHT22;36557;53.572;10.170;2023-05-07T13:21:30;16.50;98.50
50606;DHT22;36557;53.572;10.170;2023-05-07T13:23:58;16.70;98.50
50606;DHT22;36557;53.572;10.170;2023-05-07T13:26:25;16.40;98.20
50606;DHT22;36557;53.572;10.170;2023-05-07T13:28:51;16.50;98.70
50606;DHT22;36557;53.572;10.170;2023-05-07T13:31:17;16.40;99.00
50606;DHT22;36557;53.572;10.170;2023-05-07T13:33:43;16.60;99.10
50606;DHT22;36557;53.572;10.170;2023-05-07T13:36:09;16.50;98.10
50606;DHT22;36557;53.572;10.170;2023-05-07T13:38:34;16.80;98.20
50606;DHT22;36557;53.572;10.170;2023-05-07T13:41:01;16.90;97.50
50606;DHT22;36557;53.572;10.170;2023-05-07T13:43:26;16.90;96.90
50606;DHT22;36557;53.572;10.170;2023-05-07T13:45:52;17.00;96.80
50606;DHT22;36557;53.572;10.170;2023-05-07T13:48:18;17.00;96.80
50606;DHT22;36557;53.572;10.170;2023-05-07T13:50:43;17.30;96.80
50606;DHT22;36557;53.572;10.170;2023-05-07T13:53:09;17.30;96.00
50606;DHT22;36557;53.572;10.170;2023-05-07T13:55:35;17.40;96.60
50606;DHT22;36557;53.572;10.170;2023-05-07T13:58:02;17.90;96.10
50606;DHT22;36557;53.572;10.170;2023-05-07T14:00:28;18.00;95.80
50606;DHT22;36557;53.572;10.170;2023-05-07T14:02:55;17.80;95.50
50606;DHT22;36557;53.572;10.170;2023-05-07T14:05:24;18.10;95.00
50606;DHT22;36557;53.572;10.170;2023-05-07T14:07:51;18.00;95.50
50606;DHT22;36557;53.572;10.170;2023-05-07T14:10:18;17.90;94.60
50606;DHT22;36557;53.572;10.170;2023-05-07T14:12:44;18.00;95.00
50606;DHT22;36557;53.572;10.170;2023-05-07T14:15:10;18.00;94.90
50606;DHT22;36557;53.572;10.170;2023-05-07T14:17:37;18.20;94.60
50606;DHT22;36557;53.572;10.170;2023-05-07T14:20:03;18.40;94.70
50606;DHT22;36557;53.572;10.170;2023-05-07T14:22:28;18.20;94.40
50606;DHT22;36557;53.572;10.170;2023-05-07T14:24:54;18.30;93.70
50606;DHT22;36557;53.572;10.170;2023-05-07T14:27:20;18.40;93.70
50606;DHT22;36557;53.572;10.170;2023-05-07T14:29:46;18.70;94.60
50606;DHT22;36557;53.572;10.170;2023-05-07T14:32:17;18.40;93.80
50606;DHT22;36557;53.572;10.170;2023-05-07T14:34:43;18.60;93.50
50606;DHT22;36557;53.572;10.170;2023-05-07T14:37:09;17.90;94.00
50606;DHT22;36557;53.572;10.170;2023-05-07T14:39:35;17.70;94.20
50606;DHT22;36557;53.572;10.170;2023-05-07T14:42:01;17.20;94.40
50606;DHT22;36557;53.572;10.170;2023-05-07T14:44:27;17.00;94.60
50606;DHT22;36557;53.572;10.170;2023-05-07T14:46:53;16.70;94.80
50606;DHT22;36557;53.572;10.170;2023-05-07T14:49:19;16.50;95.30
50606;DHT22;36557;53.572;10.170;2023-05-07T14:51:46;16.30;96.30
50606;DHT22;36557;53.572;10.170;2023-05-07T14:54:13;16.50;96.00
50606;DHT22;36557;53.572;10.170;2023-05-07T14:56:39;16.70;95.90
50606;DHT22;36557;53.572;10.170;2023-05-07T14:59:05;16.50;95.60
50606;DHT22;36557;53.572;10.170;2023-05-07T15:01:31;16.80;96.10
50606;DHT22;36557;53.572;10.170;2023-05-07T15:03:57;16.70;95.50
50606;DHT22;36557;53.572;10.170;2023-05-07T15:06:22;16.50;95.30
50606;DHT22;36557;53.572;10.170;2023-05-07T15:08:48;16.60;95.60
50606;DHT22;36557;53.572;10.170;2023-05-07T15:11:14;16.70;95.70
50606;DHT22;36557;53.572;10.170;2023-05-07T15:13:42;16.90;95.10
50606;DHT22;36557;53.572;10.170;2023-05-07T15:16:08;16.80;95.40
50606;DHT22;36557;53.572;10.170;2023-05-07T15:18:33;16.80;95.30
50606;DHT22;36557;53.572;10.170;2023-05-07T15:20:59;16.90;95.20
50606;DHT22;36557;53.572;10.170;2023-05-07T15:23:25;16.90;95.10
50606;DHT22;36557;53.572;10.170;2023-05-07T15:25:52;17.10;95.50
50606;DHT22;36557;53.572;10.170;2023-05-07T15:28:18;17.20;95.00
50606;DHT22;36557;53.572;10.170;2023-05-07T15:30:43;17.30;95.00
50606;DHT22;36557;53.572;10.170;2023-05-07T15:33:09;17.60;94.60
50606;DHT22;36557;53.572;10.170;2023-05-07T15:35:35;17.70;94.80
50606;DHT22;36557;53.572;10.170;2023-05-07T15:38:00;17.80;94.80
50606;DHT22;36557;53.572;10.170;2023-05-07T15:40:28;17.90;94.20
50606;DHT22;36557;53.572;10.170;2023-05-07T15:42:54;17.50;94.10
50606;DHT22;36557;53.572;10.170;2023-05-07T15:45:21;17.50;94.30
50606;DHT22;36557;53.572;10.170;2023-05-07T15:47:47;17.20;94.30
50606;DHT22;36557;53.572;10.170;2023-05-07T15:50:12;17.30;94.30
50606;DHT22;36557;53.572;10.170;2023-05-07T15:52:38;17.10;94.60
50606;DHT22;36557;53.572;10.170;2023-05-07T15:55:04;16.90;94.60
50606;DHT22;36557;53.572;10.170;2023-05-07T15:57:31;16.80;94.80
50606;DHT22;36557;53.572;10.170;2023-05-07T15:59:57;16.70;95.10
50606;DHT22;36557;53.572;10.170;2023-05-07T16:02:23;16.60;95.00
50606;DHT22;36557;53.572;10.170;2023-05-07T16:04:49;16.60;95.30
50606;DHT22;36557;53.572;10.170;2023-05-07T16:07:15;16.70;94.70
50606;DHT22;36557;53.572;10.170;2023-05-07T16:09:40;16.70;94.90
50606;DHT22;36557;53.572;10.170;2023-05-07T16:12:06;16.70;95.30
50606;DHT22;36557;53.572;10.170;2023-05-07T16:14:32;16.90;95.10
50606;DHT22;36557;53.572;10.170;2023-05-07T16:16:58;16.80;95.00
50606;DHT22;36557;53.572;10.170;2023-05-07T16:19:24;16.90;95.00
50606;DHT22;36557;53.572;10.170;2023-05-07T16:21:50;16.80;94.90
50606;DHT22;36557;53.572;10.170;2023-05-07T16:24:17;16.70;95.10
50606;DHT22;36557;53.572;10.170;2023-05-07T16:26:43;16.60;95.10
50606;DHT22;36557;53.572;10.170;2023-05-07T16:29:09;16.50;95.60
50606;DHT22;36557;53.572;10.170;2023-05-07T16:31:35;16.30;95.40
50606;DHT22;36557;53.572;10.170;2023-05-07T16:34:01;16.30;95.40
50606;DHT22;36557;53.572;10.170;2023-05-07T16:36:27;16.30;95.50
50606;DHT22;36557;53.572;10.170;2023-05-07T16:38:53;16.20;95.40
50606;DHT22;36557;53.572;10.170;2023-05-07T16:41:20;16.40;95.40
50606;DHT22;36557;53.572;10.170;2023-05-07T16:43:46;16.30;95.50
50606;DHT22;36557;53.572;10.170;2023-05-07T16:46:13;16.30;95.60
50606;DHT22;36557;53.572;10.170;2023-05-07T16:48:39;16.20;95.30
50606;DHT22;36557;53.572;10.170;2023-05-07T16:51:05;16.20;95.40
50606;DHT22;36557;53.572;10.170;2023-05-07T16:53:34;16.20;95.40
50606;DHT22;36557;53.572;10.170;2023-05-07T16:56:04;16.30;95.40
50606;DHT22;36557;53.572;10.170;2023-05-07T16:58:30;16.50;95.10
50606;DHT22;36557;53.572;10.170;2023-05-07T17:00:58;16.60;95.60
50606;DHT22;36557;53.572;10.170;2023-05-07T17:03:23;16.70;95.40
50606;DHT22;36557;53.572;10.170;2023-05-07T17:05:50;16.50;94.90
50606;DHT22;36557;53.572;10.170;2023-05-07T17:08:16;16.30;95.40
50606;DHT22;36557;53.572;10.170;2023-05-07T17:10:42;16.30;96.10
50606;DHT22;36557;53.572;10.170;2023-05-07T17:13:10;16.10;95.60
50606;DHT22;36557;53.572;10.170;2023-05-07T17:15:37;16.10;95.90
50606;DHT22;36557;53.572;10.170;2023-05-07T17:18:04;16.00;96.10
50606;DHT22;36557;53.572;10.170;2023-05-07T17:20:30;15.90;95.90
50606;DHT22;36557;53.572;10.170;2023-05-07T17:22:56;15.90;96.00
50606;DHT22;36557;53.572;10.170;2023-05-07T17:25:22;16.00;96.00
50606;DHT22;36557;53.572;10.170;2023-05-07T17:27:48;16.00;96.20
50606;DHT22;36557;53.572;10.170;2023-05-07T17:30:14;15.90;96.10
50606;DHT22;36557;53.572;10.170;2023-05-07T17:32:41;15.90;96.00
50606;DHT22;36557;53.572;10.170;2023-05-07T17:35:07;15.80;96.00
50606;DHT22;36557;53.572;10.170;2023-05-07T17:37:33;15.70;96.20
50606;DHT22;36557;53.572;10.170;2023-05-07T17:40:00;15.70;96.50
50606;DHT22;36557;53.572;10.170;2023-05-07T17:42:26;15.60;96.20
50606;DHT22;36557;53.572;10.170;2023-05-07T17:44:52;15.50;96.30
50606;DHT22;36557;53.572;10.170;2023-05-07T17:47:19;15.40;96.40
50606;DHT22;36557;53.572;10.170;2023-05-07T17:49:44;15.40;96.50
50606;DHT22;36557;53.572;10.170;2023-05-07T17:52:10;15.30;96.70
50606;DHT22;36557;53.572;10.170;2023-05-07T17:54:36;15.20;96.80
50606;DHT22;36557;53.572;10.170;2023-05-07T17:57:02;15.20;96.70
50606;DHT22;36557;53.572;10.170;2023-05-07T17:59:28;15.10;96.70
50606;DHT22;36557;53.572;10.170;2023-05-07T18:01:53;15.10;96.70
50606;DHT22;36557;53.572;10.170;2023-05-07T18:04:19;15.00;97.00
50606;DHT22;36557;53.572;10.170;2023-05-07T18:06:46;14.90;97.00
50606;DHT22;36557;53.572;10.170;2023-05-07T18:09:12;14.90;97.10
50606;DHT22;36557;53.572;10.170;2023-05-07T18:14:04;14.70;97.10
50606;DHT22;36557;53.572;10.170;2023-05-07T18:16:30;14.70;97.30
50606;DHT22;36557;53.572;10.170;2023-05-07T18:18:56;14.70;97.20
50606;DHT22;36557;53.572;10.170;2023-05-07T18:21:22;14.60;97.40
50606;DHT22;36557;53.572;10.170;2023-05-07T18:23:48;14.50;97.60
50606;DHT22;36557;53.572;10.170;2023-05-07T18:26:14;14.40;97.60
50606;DHT22;36557;53.572;10.170;2023-05-07T18:28:40;14.40;98.00
50606;DHT22;36557;53.572;10.170;2023-05-07T18:31:06;14.40;97.90
50606;DHT22;36557;53.572;10.170;2023-05-07T18:33:32;14.30;98.10
50606;DHT22;36557;53.572;10.170;2023-05-07T18:35:57;14.20;98.20
50606;DHT22;36557;53.572;10.170;2023-05-07T18:38:23;14.10;98.30
50606;DHT22;36557;53.572;10.170;2023-05-07T18:40:49;14.10;98.20
50606;DHT22;36557;53.572;10.170;2023-05-07T18:43:17;14.10;98.60
50606;DHT22;36557;53.572;10.170;2023-05-07T18:45:46;14.00;98.50
50606;DHT22;36557;53.572;10.170;2023-05-07T18:48:12;13.90;98.70
50606;DHT22;36557;53.572;10.170;2023-05-07T18:50:41;13.80;98.90
50606;DHT22;36557;53.572;10.170;2023-05-07T18:53:08;13.80;99.00
50606;DHT22;36557;53.572;10.170;2023-05-07T18:55:34;13.80;99.20
50606;DHT22;36557;53.572;10.170;2023-05-07T18:57:59;13.70;99.30
50606;DHT22;36557;53.572;10.170;2023-05-07T19:00:25;13.60;99.40
50606;DHT22;36557;53.572;10.170;2023-05-07T19:02:51;13.50;99.60
50606;DHT22;36557;53.572;10.170;2023-05-07T19:05:17;13.40;99.80
50606;DHT22;36557;53.572;10.170;2023-05-07T19:07:43;13.40;99.90
50606;DHT22;36557;53.572;10.170;2023-05-07T19:10:10;13.40;99.90
50606;DHT22;36557;53.572;10.170;2023-05-07T19:12:36;13.30;99.90
50606;DHT22;36557;53.572;10.170;2023-05-07T19:15:02;13.20;99.90
50606;DHT22;36557;53.572;10.170;2023-05-07T19:17:28;13.20;99.90
50606;DHT22;36557;53.572;10.170;2023-05-07T19:19:53;13.10;99.90
50606;DHT22;36557;53.572;10.170;2023-05-07T19:22:19;13.00;99.90
50606;DHT22;36557;53.572;10.170;2023-05-07T19:24:45;13.00;99.90
50606;DHT22;36557;53.572;10.170;2023-05-07T19:27:11;13.00;99.90
50606;DHT22;36557;53.572;10.170;2023-05-07T19:29:37;12.90;99.90
50606;DHT22;36557;53.572;10.170;2023-05-07T19:32:02;12.80;99.90
50606;DHT22;36557;53.572;10.170;2023-05-07T19:34:28;12.70;99.90
50606;DHT22;36557;53.572;10.170;2023-05-07T19:36:55;12.70;99.90
50606;DHT22;36557;53.572;10.170;2023-05-07T19:39:21;12.60;99.90
50606;DHT22;36557;53.572;10.170;2023-05-07T19:41:47;12.50;99.90
50606;DHT22;36557;53.572;10.170;2023-05-07T19:44:13;12.50;99.90
50606;DHT22;36557;53.572;10.170;2023-05-07T19:46:39;12.40;99.90
50606;DHT22;36557;53.572;10.170;2023-05-07T19:49:09;12.40;99.90
50606;DHT22;36557;53.572;10.170;2023-05-07T19:51:34;12.30;99.90
50606;DHT22;36557;53.572;10.170;2023-05-07T19:54:00;12.30;99.90
50606;DHT22;36557;53.572;10.170;2023-05-07T19:56:26;12.30;99.90
50606;DHT22;36557;53.572;10.170;2023-05-07T19:58:52;12.20;99.90
50606;DHT22;36557;53.572;10.170;2023-05-07T20:01:18;12.20;99.90
50606;DHT22;36557;53.572;10.170;2023-05-07T20:03:44;12.10;99.90
50606;DHT22;36557;53.572;10.170;2023-05-07T20:06:10;12.10;99.90
50606;DHT22;36557;53.572;10.170;2023-05-07T20:08:36;12.00;99.90
50606;DHT22;36557;53.572;10.170;2023-05-07T20:11:02;11.90;99.90
50606;DHT22;36557;53.572;10.170;2023-05-07T20:13:28;11.90;99.90
50606;DHT22;36557;53.572;10.170;2023-05-07T20:15:58;11.80;99.90
50606;DHT22;36557;53.572;10.170;2023-05-07T20:18:26;11.80;99.90
50606;DHT22;36557;53.572;10.170;2023-05-07T20:20:52;11.70;99.90
50606;DHT22;36557;53.572;10.170;2023-05-07T20:23:17;11.70;99.90
50606;DHT22;36557;53.572;10.170;2023-05-07T20:25:43;11.70;99.90
50606;DHT22;36557;53.572;10.170;2023-05-07T20:28:09;11.60;99.90
50606;DHT22;36557;53.572;10.170;2023-05-07T20:30:35;11.60;99.90
50606;DHT22;36557;53.572;10.170;2023-05-07T20:33:00;11.60;99.90
50606;DHT22;36557;53.572;10.170;2023-05-07T20:35:29;11.60;99.90
50606;DHT22;36557;53.572;10.170;2023-05-07T20:37:55;11.60;99.90
50606;DHT22;36557;53.572;10.170;2023-05-07T20:40:21;11.60;99.90
50606;DHT22;36557;53.572;10.170;2023-05-07T20:42:47;11.50;99.90
50606;DHT22;36557;53.572;10.170;2023-05-07T20:45:12;11.50;99.90
50606;DHT22;36557;53.572;10.170;2023-05-07T20:47:38;11.40;99.90
50606;DHT22;36557;53.572;10.170;2023-05-07T20:50:05;11.40;99.90
50606;DHT22;36557;53.572;10.170;2023-05-07T20:52:30;11.40;99.90
50606;DHT22;36557;53.572;10.170;2023-05-07T20:54:56;11.30;99.90
50606;DHT22;36557;53.572;10.170;2023-05-07T20:57:22;11.30;99.90
50606;DHT22;36557;53.572;10.170;2023-05-07T20:59:48;11.20;99.90
50606;DHT22;36557;53.572;10.170;2023-05-07T21:02:13;11.20;99.90
50606;DHT22;36557;53.572;10.170;2023-05-07T21:04:39;11.20;99.90
50606;DHT22;36557;53.572;10.170;2023-05-07T21:07:06;11.10;99.90
50606;DHT22;36557;53.572;10.170;2023-05-07T21:09:31;11.10;99.90
50606;DHT22;36557;53.572;10.170;2023-05-07T21:11:57;11.10;99.90
50606;DHT22;36557;53.572;10.170;2023-05-07T21:14:23;11.10;99.90
50606;DHT22;36557;53.572;10.170;2023-05-07T21:16:49;11.00;99.90
50606;DHT22;36557;53.572;10.170;2023-05-07T21:19:15;10.90;99.90
50606;DHT22;36557;53.572;10.170;2023-05-07T21:21:41;11.00;99.90
50606;DHT22;36557;53.572;10.170;2023-05-07T21:24:07;10.90;99.90
50606;DHT22;36557;53.572;10.170;2023-05-07T21:26:33;10.90;99.90
50606;DHT22;36557;53.572;10.170;2023-05-07T21:28:59;10.80;99.90
50606;DHT22;36557;53.572;10.170;2023-05-07T21:31:25;10.80;99.90
50606;DHT22;36557;53.572;10.170;2023-05-07T21:33:52;10.70;99.90
50606;DHT22;36557;53.572;10.170;2023-05-07T21:36:18;10.70;99.90
50606;DHT22;36557;53.572;10.170;2023-05-07T21:38:44;10.70;99.90
50606;DHT22;36557;53.572;10.170;2023-05-07T21:41:11;10.70;99.90
50606;DHT22;36557;53.572;10.170;2023-05-07T21:43:37;10.60;99.90
50606;DHT22;36557;53.572;10.170;2023-05-07T21:46:09;10.60;99.90
50606;DHT22;36557;53.572;10.170;2023-05-07T21:48:35;10.50;99.90
50606;DHT22;36557;53.572;10.170;2023-05-07T21:53:29;10.50;99.90
50606;DHT22;36557;53.572;10.170;2023-05-07T21:55:55;10.50;99.90
50606;DHT22;36557;53.572;10.170;2023-05-07T21:58:21;10.50;99.90
50606;DHT22;36557;53.572;10.170;2023-05-07T22:00:47;10.40;99.90
50606;DHT22;36557;53.572;10.170;2023-05-07T22:03:12;10.50;99.90
50606;DHT22;36557;53.572;10.170;2023-05-07T22:05:38;10.60;99.90
50606;DHT22;36557;53.572;10.170;2023-05-07T22:08:04;10.60;99.90
50606;DHT22;36557;53.572;10.170;2023-05-07T22:10:30;10.70;99.90
50606;DHT22;36557;53.572;10.170;2023-05-07T22:12:55;10.60;99.90
50606;DHT22;36557;53.572;10.170;2023-05-07T22:15:21;10.60;99.90
50606;DHT22;36557;53.572;10.170;2023-05-07T22:17:47;10.60;99.90
50606;DHT22;36557;53.572;10.170;2023-05-07T22:20:13;10.60;99.90
50606;DHT22;36557;53.572;10.170;2023-05-07T22:23:05;10.50;99.90
50606;DHT22;36557;53.572;10.170;2023-05-07T22:25:32;10.50;99.90
50606;DHT22;36557;53.572;10.170;2023-05-07T22:28:00;10.50;99.90
50606;DHT22;36557;53.572;10.170;2023-05-07T22:30:26;10.50;99.90
50606;DHT22;36557;53.572;10.170;2023-05-07T22:32:52;10.50;99.90
50606;DHT22;36557;53.572;10.170;2023-05-07T22:35:18;10.50;99.90
50606;DHT22;36557;53.572;10.170;2023-05-07T22:37:43;10.40;99.90
50606;DHT22;36557;53.572;10.170;2023-05-07T22:40:10;10.40;99.90
50606;DHT22;36557;53.572;10.170;2023-05-07T22:42:35;10.50;99.90
50606;DHT22;36557;53.572;10.170;2023-05-07T22:45:01;10.40;99.90
50606;DHT22;36557;53.572;10.170;2023-05-07T22:47:30;10.30;99.90
50606;DHT22;36557;53.572;10.170;2023-05-07T22:49:55;10.40;99.90
50606;DHT22;36557;53.572;10.170;2023-05-07T22:52:21;10.30;99.90
50606;DHT22;36557;53.572;10.170;2023-05-07T22:54:47;10.30;99.90
50606;DHT22;36557;53.572;10.170;2023-05-07T22:57:13;10.20;99.90
50606;DHT22;36557;53.572;10.170;2023-05-07T22:59:39;10.20;99.90
50606;DHT22;36557;53.572;10.170;2023-05-07T23:02:04;10.10;99.90
50606;DHT22;36557;53.572;10.170;2023-05-07T23:04:30;10.10;99.90
